Bridge City, Louisiana
Current Conditions -  °F | °C
As of 10:53 PM on Friday 19 Dec 2014 (Local Time) from KMSY Reporting Station
Moderate Rain Moderate Rain  
Wind Chill: 50°   Ceiling: 700
Heat Index: 50°   Visibility: 3mi
Dew Point: 48°   Wind: 16mph
Humidity: 93%   Direction: 60°ENE
Pressure: 30.07"   Gusts: 21mph
Location:  29.9137°N, 90.2078°W
Report Text: KMSY 200453Z 06014G18KT 3SM RA BR BKN007 OVC013 10/09 A3007 RMK AO2 SLP186 P0031 T01000089
Loading
Personal Weather Stations






























Interactive Weather Map New forecast layout! Learn more

10-Day Weather Forecast

Advertisements
Track Severe Weather on mobile